Time;durP1;ratioP1;P1;durP2;ratioP2;P2;SDS_P1;SDS_P2;PMS_P1;PMS_P2;Temp;Humidity;BMP_temperature;BMP_pressure;BME280_temperature;BME280_humidity;BME280_pressure;Samples;Min_cycle;Max_cycle;Signal;HPM_P1;HPM_P2
2024/03/17 00:01:37;;;;;;;2.85;1.35;;;9.70;83.80;;;;;;5050683;28;20041;-63
2024/03/17 00:04:02;;;;;;;3.35;1.30;;;9.70;83.90;;;;;;5049888;28;20033;-63
2024/03/17 00:06:28;;;;;;;2.85;1.27;;;9.60;83.80;;;;;;5050916;28;20087;-61
2024/03/17 00:08:54;;;;;;;1.40;1.10;;;9.60;83.70;;;;;;5050088;28;20086;-63
2024/03/17 00:11:20;;;;;;;2.00;1.30;;;9.50;83.60;;;;;;5049831;28;20021;-62
2024/03/17 00:13:47;;;;;;;3.35;1.70;;;9.50;83.60;;;;;;5048275;28;20484;-62
2024/03/17 00:16:13;;;;;;;1.90;1.48;;;9.50;83.70;;;;;;5045281;28;20068;-64
2024/03/17 00:18:39;;;;;;;3.38;1.80;;;9.50;83.70;;;;;;5056276;28;20072;-60
2024/03/17 00:21:05;;;;;;;4.22;2.15;;;9.50;83.60;;;;;;5049935;28;20033;-62
2024/03/17 00:23:30;;;;;;;5.45;2.40;;;9.50;83.70;;;;;;5051419;28;20500;-59
2024/03/17 00:25:56;;;;;;;3.33;2.20;;;9.40;83.60;;;;;;5052189;28;20028;-62
2024/03/17 00:28:22;;;;;;;3.38;2.10;;;9.50;83.80;;;;;;5052567;28;20131;-62
2024/03/17 00:30:47;;;;;;;5.10;1.90;;;9.40;84.00;;;;;;5051630;28;20500;-62
2024/03/17 00:33:14;;;;;;;2.15;1.60;;;9.40;84.30;;;;;;5051033;28;20029;-62
2024/03/17 00:35:39;;;;;;;3.42;1.63;;;9.40;84.90;;;;;;5050197;28;20033;-62
2024/03/17 00:38:10;;;;;;;2.25;1.52;;;9.30;85.20;;;;;;5050725;28;20036;-63
2024/03/17 00:40:37;;;;;;;1.50;1.23;;;9.30;85.50;;;;;;5047666;28;20044;-62
2024/03/17 00:43:02;;;;;;;1.50;1.30;;;9.20;85.70;;;;;;5050606;28;20385;-62
2024/03/17 00:45:28;;;;;;;1.20;1.00;;;9.20;86.00;;;;;;5048349;28;20053;-62
2024/03/17 00:47:54;;;;;;;1.27;1.17;;;9.20;86.20;;;;;;5049367;28;20104;-61
2024/03/17 00:50:19;;;;;;;2.75;1.17;;;9.20;86.40;;;;;;5050590;28;20068;-61
2024/03/17 00:52:45;;;;;;;1.33;1.23;;;9.20;86.50;;;;;;5050669;28;20033;-62
2024/03/17 00:55:10;;;;;;;2.03;1.40;;;9.30;86.60;;;;;;5049880;28;20091;-61
2024/03/17 00:57:37;;;;;;;3.28;1.70;;;9.30;86.60;;;;;;5048857;28;20531;-62
2024/03/17 01:00:04;;;;;;;2.08;1.60;;;9.30;86.40;;;;;;5048029;28;20136;-62
2024/03/17 01:02:30;;;;;;;1.90;1.60;;;9.40;86.30;;;;;;5044182;28;20033;-62
2024/03/17 01:04:55;;;;;;;1.88;1.20;;;9.40;86.00;;;;;;5034358;28;20036;-61
2024/03/17 01:07:21;;;;;;;2.42;1.42;;;9.40;85.80;;;;;;5044167;28;20055;-63
2024/03/17 01:09:48;;;;;;;1.38;1.20;;;9.40;85.60;;;;;;5041645;28;20128;-62
2024/03/17 01:12:14;;;;;;;1.65;1.00;;;9.40;85.70;;;;;;5046006;28;20692;-63
2024/03/17 01:14:39;;;;;;;1.60;1.20;;;9.40;85.60;;;;;;5043597;28;20033;-63
2024/03/17 01:17:05;;;;;;;1.45;1.35;;;9.30;85.40;;;;;;5037184;28;20127;-62
2024/03/17 01:19:31;;;;;;;1.27;1.15;;;9.30;85.20;;;;;;5045849;28;20036;-61
2024/03/17 01:21:57;;;;;;;2.25;1.20;;;9.30;85.00;;;;;;5053690;28;20048;-63
2024/03/17 01:24:24;;;;;;;1.20;1.10;;;9.30;84.80;;;;;;5048853;28;20523;-62
2024/03/17 01:26:50;;;;;;;1.30;1.20;;;9.30;84.50;;;;;;5049916;28;20041;-62
2024/03/17 01:29:15;;;;;;;3.08;1.40;;;9.30;84.30;;;;;;5050166;28;20037;-62
2024/03/17 01:31:41;;;;;;;1.20;1.10;;;9.20;84.20;;;;;;5049011;28;20036;-62
2024/03/17 01:34:06;;;;;;;1.30;1.20;;;9.20;84.10;;;;;;5049880;28;20033;-63
2024/03/17 01:36:32;;;;;;;2.78;1.30;;;9.20;84.00;;;;;;5048763;28;20412;-63
2024/03/17 01:38:59;;;;;;;1.35;1.25;;;9.10;84.00;;;;;;5047291;28;20041;-61
2024/03/17 01:41:25;;;;;;;1.30;1.20;;;9.10;83.80;;;;;;5050062;28;20431;-63
2024/03/17 01:43:50;;;;;;;2.45;1.20;;;9.10;83.80;;;;;;5048941;28;20032;-63
2024/03/17 01:46:17;;;;;;;1.52;1.40;;;9.00;83.80;;;;;;5048605;28;20069;-62
2024/03/17 01:48:44;;;;;;;2.53;1.70;;;9.00;83.80;;;;;;5047827;28;20026;-61
2024/03/17 01:51:13;;;;;;;1.58;1.48;;;8.90;83.90;;;;;;5049790;28;20036;-62
2024/03/17 01:53:40;;;;;;;1.88;1.75;;;8.90;84.10;;;;;;5049484;28;20505;-62
2024/03/17 01:56:08;;;;;;;1.65;1.50;;;8.80;84.00;;;;;;5046729;28;20037;-63
2024/03/17 01:58:34;;;;;;;1.75;1.50;;;8.80;84.00;;;;;;5046366;28;20044;-62
2024/03/17 02:01:00;;;;;;;1.85;1.60;;;8.80;84.10;;;;;;5047743;28;20131;-61
2024/03/17 02:03:25;;;;;;;1.60;1.50;;;8.70;84.10;;;;;;5042155;28;20682;-61
2024/03/17 02:05:51;;;;;;;1.83;1.73;;;8.70;84.30;;;;;;5049855;28;20051;-62
2024/03/17 02:08:18;;;;;;;1.95;1.73;;;8.60;84.60;;;;;;5046551;28;20033;-63
2024/03/17 02:10:43;;;;;;;2.05;1.80;;;8.60;85.20;;;;;;5046589;28;20029;-63
2024/03/17 02:13:09;;;;;;;2.20;2.00;;;8.60;85.50;;;;;;5043749;28;20036;-61
2024/03/17 02:15:35;;;;;;;2.33;2.10;;;8.50;85.60;;;;;;5042995;28;20033;-62
2024/03/17 02:18:00;;;;;;;2.03;1.60;;;8.50;85.90;;;;;;5050998;28;20037;-61
2024/03/17 02:23:10;;;;;;;2.35;1.95;;;8.50;86.20;;;;;;5054978;28;20074;-62
2024/03/17 02:25:35;;;;;;;3.28;1.67;;;8.40;86.00;;;;;;5045164;28;20037;-62
2024/03/17 02:28:02;;;;;;;2.33;1.77;;;8.50;86.20;;;;;;5044113;28;20025;-61
2024/03/17 02:30:28;;;;;;;1.80;1.70;;;8.50;86.20;;;;;;5045138;28;20044;-62
2024/03/17 02:32:54;;;;;;;2.15;1.63;;;8.50;86.20;;;;;;5050444;28;20128;-62
2024/03/17 02:35:23;;;;;;;2.00;1.80;;;8.50;86.20;;;;;;5046976;28;20041;-62
2024/03/17 02:37:49;;;;;;;2.25;1.63;;;8.60;86.00;;;;;;5054219;28;20028;-61
2024/03/17 02:40:15;;;;;;;2.78;2.08;;;8.60;85.90;;;;;;5049426;28;20493;-61
2024/03/17 02:42:41;;;;;;;2.30;1.90;;;8.60;85.70;;;;;;5046965;28;20314;-63
2024/03/17 02:45:08;;;;;;;4.10;2.28;;;8.60;85.50;;;;;;5052840;28;20119;-62
2024/03/17 02:47:34;;;;;;;2.08;1.85;;;8.50;85.60;;;;;;5050714;28;20521;-62
2024/03/17 02:50:00;;;;;;;2.03;1.60;;;8.50;85.80;;;;;;5046259;28;20039;-63
2024/03/17 02:52:26;;;;;;;1.60;1.50;;;8.50;85.90;;;;;;5050558;28;20044;-63
2024/03/17 02:54:53;;;;;;;1.73;1.63;;;8.40;85.80;;;;;;5038625;28;20041;-61
2024/03/17 02:57:18;;;;;;;1.92;1.83;;;8.40;85.90;;;;;;5048707;28;20497;-60
2024/03/17 02:59:46;;;;;;;1.70;1.60;;;8.40;85.80;;;;;;5049982;28;20098;-60
2024/03/17 03:02:11;;;;;;;2.70;1.70;;;8.40;85.70;;;;;;5048010;28;20121;-62
2024/03/17 03:04:37;;;;;;;2.20;2.00;;;8.40;85.90;;;;;;5049839;28;20119;-61
2024/03/17 03:07:03;;;;;;;2.70;1.77;;;8.40;86.00;;;;;;5049233;28;20033;-61
2024/03/17 03:09:32;;;;;;;1.70;1.60;;;8.40;86.00;;;;;;5046235;28;20029;-63
2024/03/17 03:12:04;;;;;;;3.22;1.88;;;8.40;85.90;;;;;;5048428;28;20432;-62
2024/03/17 03:14:30;;;;;;;1.92;1.73;;;8.40;86.00;;;;;;5050475;28;20068;-63
2024/03/17 03:16:56;;;;;;;2.45;1.75;;;8.40;86.70;;;;;;5052318;28;20036;-62
2024/03/17 03:19:21;;;;;;;1.80;1.70;;;8.40;85.90;;;;;;5048506;28;20041;-61
2024/03/17 03:21:47;;;;;;;1.73;1.63;;;8.40;85.80;;;;;;5044276;28;20057;-61
2024/03/17 03:24:17;;;;;;;2.17;1.67;;;8.30;85.70;;;;;;5047230;28;20033;-61
2024/03/17 03:26:43;;;;;;;2.13;1.80;;;8.30;85.70;;;;;;5049795;28;20063;-63
2024/03/17 03:29:10;;;;;;;1.73;1.58;;;8.30;85.70;;;;;;5045632;28;20439;-62
2024/03/17 03:31:36;;;;;;;2.30;1.85;;;8.30;85.70;;;;;;5048121;28;20033;-61
2024/03/17 03:34:02;;;;;;;2.70;1.70;;;8.40;85.70;;;;;;5048123;28;20522;-63
2024/03/17 03:36:28;;;;;;;2.00;1.80;;;8.40;85.60;;;;;;5045172;28;20045;-62
2024/03/17 03:38:54;;;;;;;3.65;1.83;;;8.40;85.60;;;;;;5049445;28;20037;-62
2024/03/17 03:41:22;;;;;;;2.30;2.10;;;8.40;85.60;;;;;;5049781;28;20124;-60
2024/03/17 03:43:48;;;;;;;2.58;2.30;;;8.40;85.70;;;;;;5047395;28;20033;-62
2024/03/17 03:46:14;;;;;;;2.47;2.28;;;8.40;85.70;;;;;;5049094;28;20021;-62
2024/03/17 03:48:39;;;;;;;4.63;2.35;;;8.40;85.90;;;;;;5045351;28;20157;-60
2024/03/17 03:51:09;;;;;;;2.78;2.47;;;8.40;86.00;;;;;;5043755;28;20044;-62
2024/03/17 03:53:37;;;;;;;2.35;2.15;;;8.40;86.30;;;;;;5048964;28;20037;-63
2024/03/17 03:56:06;;;;;;;2.65;2.35;;;8.40;86.60;;;;;;5048499;28;20037;-62
2024/03/17 03:58:40;;;;;;;3.10;2.55;;;8.40;86.70;;;;;;5045367;28;20082;-63
2024/03/17 04:01:21;;;;;;;3.20;2.60;;;8.40;86.90;;;;;;5048740;28;20477;-63
2024/03/17 04:03:47;;;;;;;2.53;2.30;;;8.40;86.80;;;;;;5046782;28;20112;-63
2024/03/17 04:06:15;;;;;;;2.30;2.03;;;8.40;86.70;;;;;;5048373;28;20098;-63
2024/03/17 04:08:41;;;;;;;2.42;1.80;;;8.40;86.70;;;;;;5048192;28;20040;-63
2024/03/17 04:11:08;;;;;;;2.15;1.65;;;8.40;86.70;;;;;;5048821;28;20029;-62
2024/03/17 04:13:33;;;;;;;2.42;1.80;;;8.40;86.70;;;;;;5050234;28;20033;-62
2024/03/17 04:16:01;;;;;;;1.50;1.40;;;8.40;86.60;;;;;;5045652;28;20037;-63
2024/03/17 04:18:30;;;;;;;1.70;1.60;;;8.50;86.70;;;;;;5046377;28;20041;-62
2024/03/17 04:20:56;;;;;;;3.78;1.27;;;8.50;86.70;;;;;;5049975;28;20033;-62
2024/03/17 04:23:23;;;;;;;1.50;1.40;;;8.50;86.70;;;;;;5051719;28;20036;-63
2024/03/17 04:25:50;;;;;;;1.52;1.40;;;8.50;86.60;;;;;;5053256;28;20037;-63
2024/03/17 04:28:15;;;;;;;1.75;1.65;;;8.50;86.60;;;;;;5045723;28;20048;-63
2024/03/17 04:30:42;;;;;;;1.70;1.60;;;8.50;86.60;;;;;;5043316;28;20029;-61
2024/03/17 04:33:17;;;;;;;2.50;1.50;;;8.60;86.70;;;;;;5040717;28;20399;-62
2024/03/17 04:35:43;;;;;;;2.58;1.45;;;8.60;86.80;;;;;;5053853;28;20086;-62
2024/03/17 04:38:09;;;;;;;2.70;1.83;;;8.60;87.00;;;;;;5046682;28;20112;-63
2024/03/17 04:40:40;;;;;;;2.63;1.60;;;8.60;86.90;;;;;;5046343;28;20040;-62
2024/03/17 04:43:05;;;;;;;1.92;1.73;;;8.60;86.90;;;;;;5041119;28;20510;-63
2024/03/17 04:45:31;;;;;;;2.08;1.90;;;8.60;86.90;;;;;;5053508;28;20044;-62
2024/03/17 04:47:56;;;;;;;3.70;1.92;;;8.70;86.90;;;;;;5047346;28;20492;-60
2024/03/17 04:50:22;;;;;;;2.20;1.85;;;8.70;86.90;;;;;;5044531;28;20518;-62
2024/03/17 04:52:48;;;;;;;2.55;2.08;;;8.70;86.90;;;;;;5041907;28;20029;-62
2024/03/17 04:55:16;;;;;;;2.72;2.53;;;8.70;86.90;;;;;;5044290;28;20033;-63
2024/03/17 04:57:43;;;;;;;3.42;2.63;;;8.70;86.90;;;;;;5046367;28;20044;-60
2024/03/17 05:00:11;;;;;;;3.28;2.70;;;8.70;86.90;;;;;;5044354;28;20507;-61
2024/03/17 05:02:37;;;;;;;5.82;3.30;;;8.70;86.80;;;;;;5046528;28;20037;-63
2024/03/17 05:05:05;;;;;;;5.28;3.45;;;8.70;86.90;;;;;;5044204;28;20128;-63
2024/03/17 05:07:31;;;;;;;3.35;3.05;;;8.80;87.10;;;;;;5042058;28;20042;-61
2024/03/17 05:09:57;;;;;;;3.03;2.70;;;8.80;87.00;;;;;;5043730;28;20036;-61
2024/03/17 05:12:22;;;;;;;3.90;3.50;;;8.80;87.10;;;;;;5042769;28;20044;-60
2024/03/17 05:14:48;;;;;;;3.75;3.08;;;8.80;87.20;;;;;;5039757;28;20416;-63
2024/03/17 05:17:13;;;;;;;4.35;3.20;;;8.80;87.40;;;;;;5045874;28;20408;-62
2024/03/17 05:19:39;;;;;;;4.85;3.88;;;8.70;87.40;;;;;;5043871;28;20396;-61
2024/03/17 05:22:05;;;;;;;5.55;4.20;;;8.70;87.60;;;;;;5047478;28;20043;-61
2024/03/17 05:24:30;;;;;;;7.85;4.82;;;8.70;87.60;;;;;;5040971;28;20029;-62
2024/03/17 05:26:56;;;;;;;7.57;3.72;;;8.70;87.40;;;;;;5042227;28;20036;-62
2024/03/17 05:29:22;;;;;;;8.73;4.85;;;8.70;87.40;;;;;;5043617;28;20029;-63
2024/03/17 05:31:48;;;;;;;6.18;3.95;;;8.70;87.50;;;;;;5046699;28;20041;-63
2024/03/17 05:34:14;;;;;;;5.03;3.70;;;8.70;87.60;;;;;;5042671;28;20036;-60
2024/03/17 05:36:39;;;;;;;4.05;3.35;;;8.80;87.60;;;;;;5045648;28;20037;-62
2024/03/17 05:39:05;;;;;;;4.18;2.75;;;8.70;87.70;;;;;;5038004;28;20048;-61
2024/03/17 05:41:30;;;;;;;2.78;2.53;;;8.80;87.70;;;;;;5045636;28;20036;-62
2024/03/17 05:43:58;;;;;;;5.22;2.22;;;8.80;87.70;;;;;;5042632;28;20033;-63
2024/03/17 05:46:25;;;;;;;2.50;2.30;;;8.80;87.70;;;;;;5040693;28;20124;-61
2024/03/17 05:48:51;;;;;;;2.53;2.25;;;8.70;87.80;;;;;;5047215;28;20731;-61
2024/03/17 05:51:17;;;;;;;2.75;2.55;;;8.70;87.80;;;;;;5042516;28;20045;-62
2024/03/17 05:53:45;;;;;;;4.70;3.03;;;8.70;88.00;;;;;;5041351;28;20048;-60
2024/03/17 05:56:12;;;;;;;3.78;3.03;;;8.70;88.10;;;;;;5043306;28;20116;-62
2024/03/17 05:58:38;;;;;;;16.42;10.80;;;8.70;88.10;;;;;;5044775;28;20025;-62
2024/03/17 06:01:06;;;;;;;15.90;8.75;;;8.70;88.10;;;;;;5046344;28;20044;-60
2024/03/17 06:03:35;;;;;;;8.10;5.78;;;8.70;88.30;;;;;;5043101;28;20365;-61
2024/03/17 06:06:01;;;;;;;4.40;4.00;;;8.70;88.50;;;;;;5043846;28;20124;-61
2024/03/17 06:08:27;;;;;;;5.32;3.80;;;8.70;88.50;;;;;;5043541;28;20136;-62
2024/03/17 06:10:52;;;;;;;4.72;3.35;;;8.70;88.50;;;;;;5045110;28;20463;-62
2024/03/17 06:13:18;;;;;;;4.05;3.65;;;8.80;88.60;;;;;;5042538;28;20087;-61
2024/03/17 06:15:47;;;;;;;4.20;3.67;;;8.80;88.50;;;;;;5047939;28;20144;-63
2024/03/17 06:18:14;;;;;;;5.32;3.85;;;8.80;88.60;;;;;;5047936;28;20047;-62
2024/03/17 06:20:43;;;;;;;5.47;4.30;;;8.80;88.70;;;;;;5046634;28;20069;-61
2024/03/17 06:23:10;;;;;;;4.57;3.65;;;8.90;88.90;;;;;;5043873;28;20112;-60
2024/03/17 06:25:43;;;;;;;5.85;3.67;;;8.90;89.00;;;;;;5045853;28;20108;-63
2024/03/17 06:28:14;;;;;;;4.32;3.67;;;8.90;89.20;;;;;;5041854;28;20034;-63
2024/03/17 06:31:02;;;;;;;6.32;3.63;;;9.00;89.20;;;;;;5044120;28;20048;-62
2024/03/17 06:33:28;;;;;;;5.28;3.90;;;9.00;89.50;;;;;;5047970;28;20041;-63
2024/03/17 06:35:54;;;;;;;4.78;3.70;;;9.10;89.00;;;;;;5042061;28;20455;-63
2024/03/17 06:38:19;;;;;;;3.97;3.60;;;9.10;89.00;;;;;;5044240;28;20063;-63
2024/03/17 06:40:51;;;;;;;6.10;4.03;;;9.10;89.00;;;;;;5041236;28;20249;-63
2024/03/17 06:43:18;;;;;;;3.97;3.58;;;9.10;89.00;;;;;;5046371;28;20036;-62
2024/03/17 06:45:44;;;;;;;3.40;3.10;;;9.20;89.00;;;;;;5045975;28;20029;-61
2024/03/17 06:48:10;;;;;;;4.43;3.30;;;9.20;89.00;;;;;;5048243;28;20037;-62
2024/03/17 06:50:40;;;;;;;3.17;2.90;;;9.20;88.90;;;;;;5044477;28;20041;-62
2024/03/17 06:53:06;;;;;;;2.90;2.70;;;9.30;89.10;;;;;;5045719;28;20425;-62
2024/03/17 06:55:32;;;;;;;2.70;2.50;;;9.30;89.10;;;;;;5049001;28;20034;-61
2024/03/17 06:57:57;;;;;;;3.70;2.75;;;9.40;89.00;;;;;;5048163;28;20385;-61
2024/03/17 07:00:25;;;;;;;2.72;2.50;;;9.40;89.00;;;;;;5043076;28;20144;-62
2024/03/17 07:02:50;;;;;;;2.78;2.58;;;9.40;88.90;;;;;;5045251;28;20116;-62
2024/03/17 07:05:16;;;;;;;3.08;2.78;;;9.50;89.00;;;;;;5048104;28;20140;-61
2024/03/17 07:07:43;;;;;;;2.95;2.75;;;9.50;89.10;;;;;;5043107;28;20041;-63
2024/03/17 07:10:10;;;;;;;3.30;2.90;;;9.60;89.20;;;;;;5049015;28;20033;-62
2024/03/17 07:12:36;;;;;;;3.20;3.00;;;9.60;89.30;;;;;;5044282;28;20076;-63
2024/03/17 07:15:02;;;;;;;6.32;2.90;;;9.60;89.20;;;;;;5048434;28;20114;-63
2024/03/17 07:17:28;;;;;;;3.67;3.38;;;9.60;89.00;;;;;;5043618;28;20033;-62
2024/03/17 07:19:53;;;;;;;3.60;3.30;;;9.70;89.10;;;;;;5042589;28;20032;-63
2024/03/17 07:22:20;;;;;;;3.95;3.20;;;9.70;89.20;;;;;;5047624;28;20033;-63
2024/03/17 07:24:45;;;;;;;3.88;3.58;;;9.70;89.20;;;;;;5041674;28;20033;-62
2024/03/17 07:27:14;;;;;;;3.70;3.40;;;9.70;89.30;;;;;;5041687;28;20055;-62
2024/03/17 07:29:40;;;;;;;3.78;3.13;;;9.70;89.30;;;;;;5042656;28;20578;-62
2024/03/17 07:32:06;;;;;;;3.35;3.10;;;9.80;89.10;;;;;;5043685;28;20508;-62
2024/03/17 07:34:32;;;;;;;3.40;3.10;;;9.80;89.20;;;;;;5046020;28;20075;-62
2024/03/17 07:37:00;;;;;;;3.58;3.28;;;9.80;89.30;;;;;;5043585;28;20040;-62
2024/03/17 07:39:34;;;;;;;3.60;3.30;;;9.80;89.30;;;;;;5031783;28;20435;-63
2024/03/17 07:42:01;;;;;;;4.18;3.78;;;9.90;89.30;;;;;;5032724;28;20435;-63
2024/03/17 07:44:28;;;;;;;4.43;4.03;;;9.90;89.30;;;;;;5027979;28;20593;-62
2024/03/17 07:46:57;;;;;;;6.47;5.20;;;9.90;89.40;;;;;;5032106;28;20492;-62
2024/03/17 07:49:23;;;;;;;5.15;4.60;;;10.00;89.40;;;;;;5030947;28;20048;-62
2024/03/17 07:51:49;;;;;;;7.75;5.20;;;10.00;89.30;;;;;;5037061;28;20573;-63
2024/03/17 07:54:14;;;;;;;5.05;4.30;;;10.00;89.30;;;;;;5043980;28;20124;-61
2024/03/17 07:56:40;;;;;;;4.43;4.03;;;10.10;89.50;;;;;;5039153;28;20037;-62
2024/03/17 07:59:11;;;;;;;4.68;4.20;;;10.10;89.50;;;;;;5042141;28;20037;-63
2024/03/17 08:01:38;;;;;;;5.22;4.13;;;10.20;90.10;;;;;;5037574;28;20079;-62
2024/03/17 08:04:04;;;;;;;5.40;4.32;;;10.30;89.50;;;;;;5040162;28;20029;-61
2024/03/17 08:06:30;;;;;;;5.65;4.05;;;10.30;89.50;;;;;;5036822;28;20037;-63
2024/03/17 08:08:55;;;;;;;4.20;3.80;;;10.40;89.60;;;;;;5035863;28;20048;-63
2024/03/17 08:11:21;;;;;;;4.32;3.97;;;10.50;89.50;;;;;;5039052;28;20404;-63
2024/03/17 08:13:47;;;;;;;4.95;4.30;;;10.50;89.40;;;;;;5041768;28;20036;-62
2024/03/17 08:16:14;;;;;;;4.68;4.20;;;10.60;89.30;;;;;;5041337;28;20045;-63
2024/03/17 08:18:40;;;;;;;4.40;4.00;;;10.70;89.20;;;;;;5042389;28;20120;-62
2024/03/17 08:21:06;;;;;;;4.28;3.85;;;10.70;89.10;;;;;;5040896;28;20288;-63
2024/03/17 08:23:39;;;;;;;4.32;3.90;;;10.80;88.80;;;;;;5038085;28;20059;-60
2024/03/17 08:26:04;;;;;;;4.57;4.18;;;10.80;88.50;;;;;;5041289;28;20529;-62
2024/03/17 08:28:30;;;;;;;4.22;3.83;;;10.90;88.60;;;;;;5046116;28;20052;-62
2024/03/17 08:31:03;;;;;;;4.05;3.75;;;10.90;88.70;;;;;;5042539;28;20032;-63
2024/03/17 08:33:30;;;;;;;4.45;3.97;;;11.00;88.80;;;;;;5042229;28;20055;-61
2024/03/17 08:35:58;;;;;;;3.80;3.50;;;11.00;88.60;;;;;;5038472;28;20033;-62
2024/03/17 08:38:25;;;;;;;4.30;3.90;;;11.10;88.60;;;;;;5041580;28;20144;-63
2024/03/17 08:40:51;;;;;;;4.30;3.90;;;11.20;88.60;;;;;;5046048;28;20043;-63
2024/03/17 08:43:17;;;;;;;4.28;3.45;;;11.30;88.60;;;;;;5046605;28;20381;-63
2024/03/17 08:45:43;;;;;;;3.83;3.53;;;11.40;88.50;;;;;;5051980;28;20041;-63
2024/03/17 08:48:10;;;;;;;5.38;3.50;;;11.40;88.40;;;;;;5046656;28;20030;-63
2024/03/17 08:50:36;;;;;;;3.67;3.38;;;11.50;88.20;;;;;;5045960;28;20029;-64
2024/03/17 08:53:02;;;;;;;4.50;3.45;;;11.60;88.10;;;;;;5049701;28;20048;-62
2024/03/17 08:55:27;;;;;;;3.65;3.13;;;11.70;87.70;;;;;;5048917;28;20162;-63
2024/03/17 08:57:53;;;;;;;3.70;3.30;;;11.70;87.40;;;;;;5042020;28;20072;-63
2024/03/17 09:00:18;;;;;;;4.35;3.30;;;11.80;87.20;;;;;;5046626;28;20032;-63
2024/03/17 09:02:44;;;;;;;3.25;2.95;;;11.80;86.90;;;;;;5048597;28;20519;-63
2024/03/17 09:05:10;;;;;;;4.10;3.67;;;11.80;87.00;;;;;;5045523;28;20064;-64
2024/03/17 09:07:35;;;;;;;4.45;3.90;;;11.90;86.90;;;;;;5044869;28;20630;-64
2024/03/17 09:10:01;;;;;;;5.40;3.83;;;11.90;87.10;;;;;;5047440;28;20029;-64
2024/03/17 09:12:27;;;;;;;4.00;3.60;;;11.90;87.30;;;;;;5046019;28;20636;-63
2024/03/17 09:14:53;;;;;;;4.78;3.72;;;12.00;87.40;;;;;;5047958;28;20158;-63
2024/03/17 09:17:20;;;;;;;4.38;3.97;;;12.10;87.40;;;;;;5045455;28;20048;-63
2024/03/17 09:19:47;;;;;;;5.50;3.60;;;12.20;87.40;;;;;;5042110;28;20378;-64
2024/03/17 09:22:13;;;;;;;3.78;3.35;;;12.20;87.20;;;;;;5044352;28;20037;-63
2024/03/17 09:24:39;;;;;;;4.07;3.67;;;12.40;87.00;;;;;;5043021;28;20039;-63
2024/03/17 09:27:05;;;;;;;4.65;4.07;;;12.40;86.50;;;;;;5043527;28;20369;-63
2024/03/17 09:29:30;;;;;;;4.47;4.07;;;12.50;86.00;;;;;;5040947;28;20040;-61
2024/03/17 09:31:56;;;;;;;4.03;3.63;;;12.60;85.80;;;;;;5046469;28;20036;-63
2024/03/17 09:34:22;;;;;;;5.15;3.60;;;12.60;85.50;;;;;;5044190;28;20040;-63
2024/03/17 09:36:47;;;;;;;4.25;3.85;;;12.70;85.30;;;;;;5049896;28;20043;-63
2024/03/17 09:39:14;;;;;;;3.83;3.42;;;12.60;85.00;;;;;;5044714;28;20099;-63
2024/03/17 09:41:40;;;;;;;3.88;3.28;;;12.60;85.00;;;;;;5048214;28;20493;-63
2024/03/17 09:44:09;;;;;;;3.67;3.38;;;12.70;85.10;;;;;;5047323;28;20048;-62
2024/03/17 09:46:36;;;;;;;3.85;3.45;;;12.80;85.10;;;;;;5046179;28;20025;-62
2024/03/17 09:49:01;;;;;;;4.40;3.50;;;12.80;85.00;;;;;;5044092;28;20080;-63
2024/03/17 09:51:27;;;;;;;3.95;3.55;;;12.80;84.80;;;;;;5043634;28;20059;-63
2024/03/17 09:53:53;;;;;;;4.90;3.65;;;12.90;84.70;;;;;;5050540;28;20087;-64
2024/03/17 09:56:20;;;;;;;4.15;3.60;;;12.90;84.60;;;;;;5042097;28;20156;-64
2024/03/17 09:58:47;;;;;;;4.47;3.75;;;13.00;84.70;;;;;;5043272;28;20055;-63
2024/03/17 10:01:13;;;;;;;3.88;3.50;;;13.10;84.90;;;;;;5045048;28;20567;-63
2024/03/17 10:03:51;;;;;;;4.38;3.30;;;13.10;84.80;;;;;;5042669;28;20054;-63
2024/03/17 10:06:21;;;;;;;4.93;3.05;;;13.30;83.90;;;;;;5046950;28;20033;-62
2024/03/17 10:08:49;;;;;;;3.35;2.53;;;13.30;84.00;;;;;;5044963;28;20044;-63
2024/03/17 10:11:20;;;;;;;4.63;2.67;;;13.40;83.80;;;;;;5038548;28;20033;-63
2024/03/17 10:13:58;;;;;;;3.40;3.10;;;13.40;83.40;;;;;;5045804;28;22019;-62
2024/03/17 10:16:25;;;;;;;2.80;2.58;;;13.50;82.90;;;;;;5037422;28;20068;-63
2024/03/17 10:19:06;;;;;;;2.60;2.40;;;13.50;82.40;;;;;;5043928;28;20037;-62
2024/03/17 10:21:32;;;;;;;2.58;2.38;;;13.60;83.10;;;;;;5045178;28;20037;-61
2024/03/17 10:24:08;;;;;;;4.05;2.92;;;13.60;82.40;;;;;;5039570;28;20021;-64
2024/03/17 10:26:38;;;;;;;3.40;2.60;;;13.70;82.20;;;;;;5043744;28;20567;-62
2024/03/17 10:29:15;;;;;;;3.20;2.40;;;13.70;82.10;;;;;;5039473;28;20041;-62
2024/03/17 10:31:41;;;;;;;3.47;2.70;;;13.70;82.00;;;;;;5037738;28;20034;-63
2024/03/17 10:34:18;;;;;;;3.60;2.67;;;13.80;82.00;;;;;;5045747;28;20031;-62
2024/03/17 10:36:48;;;;;;;3.10;2.80;;;13.90;81.60;;;;;;5041966;28;20722;-63
2024/03/17 10:39:32;;;;;;;3.25;2.83;;;13.90;81.80;;;;;;5047010;28;20029;-63
2024/03/17 10:42:02;;;;;;;3.63;2.73;;;14.00;81.00;;;;;;5038140;28;20397;-63
2024/03/17 10:44:29;;;;;;;3.10;2.80;;;14.00;81.50;;;;;;5036555;28;20025;-62
2024/03/17 10:46:59;;;;;;;3.58;2.83;;;14.10;80.80;;;;;;5053457;28;20570;-63
2024/03/17 10:49:35;;;;;;;5.03;3.35;;;14.10;81.20;;;;;;5041433;28;20032;-62
2024/03/17 10:52:02;;;;;;;4.55;2.28;;;14.10;80.30;;;;;;5047150;28;20029;-63
2024/03/17 10:54:31;;;;;;;3.08;2.10;;;14.20;79.30;;;;;;5048436;28;20033;-63
2024/03/17 10:57:35;;;;;;;3.70;2.00;;;14.10;78.90;;;;;;5040548;28;20037;-64
2024/03/17 11:00:04;;;;;;;3.90;1.98;;;14.10;77.80;;;;;;5048487;28;20128;-62
2024/03/17 11:02:35;;;;;;;3.75;2.15;;;14.20;79.00;;;;;;5054400;28;20131;-63
2024/03/17 11:05:23;;;;;;;5.93;2.35;;;14.20;79.40;;;;;;5048196;28;23236;-63
2024/03/17 11:07:52;;;;;;;2.25;1.80;;;14.30;77.90;;;;;;5047862;28;20025;-63
2024/03/17 11:10:36;;;;;;;5.38;2.30;;;14.30;78.60;;;;;;5049569;28;20033;-62
2024/03/17 11:13:03;;;;;;;4.97;2.27;;;14.40;77.00;;;;;;5048502;28;20090;-62
2024/03/17 11:15:39;;;;;;;4.55;2.40;;;14.40;78.30;;;;;;5049164;28;20037;-63
2024/03/17 11:18:11;;;;;;;2.70;2.38;;;14.40;78.70;;;;;;5050015;28;20464;-63
2024/03/17 11:20:41;;;;;;;4.10;2.20;;;14.40;77.80;;;;;;5048574;28;20060;-63
2024/03/17 11:23:09;;;;;;;4.70;2.20;;;14.40;77.40;;;;;;5050023;28;20026;-62
2024/03/17 11:25:38;;;;;;;5.40;2.17;;;14.40;77.70;;;;;;5044879;28;20031;-63
2024/03/17 11:28:09;;;;;;;3.97;2.10;;;14.50;77.00;;;;;;5047870;28;20518;-63
2024/03/17 11:30:43;;;;;;;6.28;2.40;;;14.50;77.70;;;;;;5046435;28;20025;-63
2024/03/17 11:33:40;;;;;;;4.05;2.17;;;14.50;77.00;;;;;;5046977;28;20044;-63
2024/03/17 11:36:22;;;;;;;3.80;2.17;;;14.60;75.70;;;;;;5047301;28;20060;-62
2024/03/17 11:38:57;;;;;;;3.28;1.85;;;14.60;75.20;;;;;;5049616;28;20179;-63
2024/03/17 11:41:34;;;;;;;2.00;1.70;;;14.60;76.10;;;;;;5050827;28;20044;-64
2024/03/17 11:44:29;;;;;;;3.65;1.80;;;14.60;75.50;;;;;;5055477;28;20036;-62
2024/03/17 11:46:54;;;;;;;11.38;1.80;;;14.60;74.70;;;;;;5050872;28;21124;-63
2024/03/17 11:49:21;;;;;;;3.45;1.90;;;14.60;75.30;;;;;;5050667;28;20037;-63
2024/03/17 11:51:48;;;;;;;3.25;1.42;;;14.60;75.10;;;;;;5045057;28;20079;-63
2024/03/17 11:54:19;;;;;;;2.97;1.60;;;14.60;75.30;;;;;;5050563;28;20033;-63
2024/03/17 11:56:49;;;;;;;3.63;1.60;;;14.60;74.70;;;;;;5046520;28;20032;-63
2024/03/17 11:59:17;;;;;;;3.38;1.90;;;14.60;74.90;;;;;;5049117;28;20037;-63
2024/03/17 12:01:49;;;;;;;4.93;1.67;;;14.70;75.20;;;;;;5048414;28;20113;-63
2024/03/17 12:04:16;;;;;;;3.15;1.60;;;14.70;74.90;;;;;;5047961;28;20028;-63
2024/03/17 12:06:50;;;;;;;4.13;1.90;;;14.70;74.80;;;;;;5049235;28;20086;-63
2024/03/17 12:09:22;;;;;;;2.88;1.35;;;14.70;74.50;;;;;;5048497;28;20044;-63
2024/03/17 12:11:58;;;;;;;1.95;1.40;;;14.70;74.90;;;;;;5048634;28;20033;-62
2024/03/17 12:14:25;;;;;;;3.80;1.50;;;14.80;75.40;;;;;;5049134;28;20645;-62
2024/03/17 12:16:51;;;;;;;3.88;1.80;;;14.90;75.30;;;;;;5044308;28;20306;-61
2024/03/17 12:19:17;;;;;;;3.15;1.35;;;14.90;75.10;;;;;;5054664;28;20021;-62
2024/03/17 12:21:45;;;;;;;2.72;1.35;;;14.90;74.40;;;;;;5047071;28;20553;-63
2024/03/17 12:24:16;;;;;;;3.83;1.52;;;15.00;74.20;;;;;;5046938;28;20064;-63
2024/03/17 12:26:42;;;;;;;4.18;1.30;;;15.10;73.30;;;;;;5045667;28;20029;-63
2024/03/17 12:29:32;;;;;;;4.38;1.80;;;15.10;74.00;;;;;;5042953;28;20021;-62
2024/03/17 12:32:03;;;;;;;3.88;1.30;;;15.20;73.20;;;;;;5042002;28;20116;-61
2024/03/17 12:34:31;;;;;;;5.28;1.38;;;15.30;73.60;;;;;;5045457;28;20037;-61
2024/03/17 12:36:58;;;;;;;4.40;1.27;;;15.30;72.80;;;;;;5046341;28;20029;-63
2024/03/17 12:39:25;;;;;;;3.90;1.17;;;15.40;72.90;;;;;;5042201;28;20120;-63
2024/03/17 12:42:09;;;;;;;2.78;1.20;;;15.40;71.60;;;;;;5043214;28;20060;-62
2024/03/17 12:44:35;;;;;;;5.30;1.60;;;15.50;70.10;;;;;;5038821;28;20200;-62
2024/03/17 12:47:05;;;;;;;2.72;0.85;;;15.50;71.10;;;;;;5046723;28;20421;-63
2024/03/17 12:49:35;;;;;;;2.08;0.88;;;15.50;70.80;;;;;;5048015;28;20516;-62
2024/03/17 12:52:02;;;;;;;2.60;0.95;;;15.50;71.10;;;;;;5045936;28;20120;-62
2024/03/17 12:54:28;;;;;;;4.43;1.10;;;15.60;70.20;;;;;;5040953;28;20049;-62
2024/03/17 13:02:34;;;;;;;4.23;1.20;;;15.70;69.20;;;;;;5044753;28;20092;-61
2024/03/17 13:05:26;;;;;;;4.68;1.33;;;15.70;69.00;;;;;;5046449;28;20636;-63